KNIP/NIP METAR and TAF weather

Enter ICAO airport designator
Station Type Date Time Source
KNIP METAR 2020/09/18 23:53 UTC NOAA

KNIP 182353Z 34016KT 10SM FEW018 OVC048 26/21 A2991 RMK AO2 SLP124 T02560211 10306 20256 53016


Station Type Date Time Source
KNIP Decoded METAR 2020/09/18 23:53 UTC NOAA

JACKSONVILLE NAVAL AIR STN, FL, United States (KNIP) 30-14N 81-40W 8M
Sep 18, 2020 - 07:53 PM EDT / 2020.09.18 2353 UTC
Wind: from the NNW (340 degrees) at 18 MPH (16 KT):0
Visibility: 10 mile(s):0
Sky conditions: overcast
Temperature: 78.1 F (25.6 C)
Dew Point: 70.0 F (21.1 C)
Relative Humidity: 76%
Pressure (altimeter): 29.91 in. Hg (1012 hPa)
Pressure tendency: 0.05 inches (1.6 hPa) higher than three hours ago
ob: KNIP 182353Z 34016KT 10SM FEW018 OVC048 26/21 A2991 RMK AO2 SLP124 T02560211 10306 20256 53016
cycle: 0

Station Type Date Time Source
KNIP TAF 2020/09/18 23:59 UTC NOAA

TAF KNIP 1823/1923 35014KT 9999 VCSH SCT018 OVC050 QNH2988INS
FM190600 02015KT 9999 SCT010 OVC030 QNH2994INS
FM191500 04016G26KT 9999 VCSH SCT012 OVC020 QNH2997INS
FM191800 05019G28KT 9999 VCSH FEW010 OVC015 QNH2999INS
TEMPO 1819/1923 4800 SHRA BR BKN010 OVC015 T23/1911Z T29/1919Z FN20019

Example: see airport list